Time;durP1;ratioP1;P1;durP2;ratioP2;P2;SDS_P1;SDS_P2;PMS_P1;PMS_P2;Temp;Humidity;BMP_temperature;BMP_pressure;BME280_temperature;BME280_humidity;BME280_pressure;Samples;Min_cycle;Max_cycle;Signal;HPM_P1;HPM_P2
2022/05/19 00:01:52;;;;;;;4.18;3.60;;;20.40;99.90;;;;;;5013701;28;20259;-65
2022/05/19 00:04:22;;;;;;;5.97;3.05;;;20.40;99.90;;;;;;5013088;28;20292;-65
2022/05/19 00:06:50;;;;;;;3.78;2.72;;;20.40;99.90;;;;;;5013665;28;20243;-65
2022/05/19 00:09:18;;;;;;;5.25;3.22;;;20.40;99.90;;;;;;5012812;28;20237;-65
2022/05/19 00:11:48;;;;;;;3.53;3.22;;;20.40;99.90;;;;;;5013023;28;20205;-65
2022/05/19 00:14:17;;;;;;;3.67;3.25;;;20.40;99.90;;;;;;5012528;28;20201;-66
2022/05/19 00:16:45;;;;;;;4.00;3.30;;;20.40;99.90;;;;;;5013288;28;20201;-66
2022/05/19 00:19:15;;;;;;;3.63;3.33;;;20.40;99.90;;;;;;5013230;28;20279;-64
2022/05/19 00:21:44;;;;;;;7.82;4.07;;;20.30;99.90;;;;;;5013212;28;20293;-65
2022/05/19 00:24:12;;;;;;;5.57;3.10;;;20.20;99.90;;;;;;5012361;28;20209;-65
2022/05/19 00:26:40;;;;;;;3.10;2.90;;;20.20;99.90;;;;;;5013063;28;20232;-64
2022/05/19 00:29:08;;;;;;;3.28;2.97;;;20.20;99.90;;;;;;5012601;28;20261;-64
2022/05/19 00:31:37;;;;;;;3.92;3.58;;;20.10;99.90;;;;;;5012870;28;20662;-65
2022/05/19 00:34:05;;;;;;;3.10;2.90;;;20.10;99.90;;;;;;5012331;28;20279;-65
2022/05/19 00:36:34;;;;;;;3.83;3.53;;;20.00;99.90;;;;;;5012980;28;20248;-64
2022/05/19 00:39:04;;;;;;;5.20;3.55;;;20.00;99.90;;;;;;5012547;28;20244;-65
2022/05/19 00:41:33;;;;;;;4.05;3.75;;;19.90;99.90;;;;;;5012691;28;20298;-64
2022/05/19 00:44:03;;;;;;;3.53;3.20;;;19.80;99.90;;;;;;5012200;28;20577;-65
2022/05/19 00:46:37;;;;;;;3.90;3.50;;;19.80;99.90;;;;;;5012799;28;20229;-65
2022/05/19 00:49:10;;;;;;;4.63;3.25;;;19.80;99.90;;;;;;5012818;28;20305;-65
2022/05/19 00:51:45;;;;;;;3.50;3.20;;;19.80;99.90;;;;;;5006673;28;20284;-65
2022/05/19 00:54:18;;;;;;;3.88;3.13;;;19.70;99.90;;;;;;5011639;28;20256;-65
2022/05/19 00:56:51;;;;;;;4.25;2.83;;;19.60;99.90;;;;;;5012638;28;20236;-64
2022/05/19 00:59:24;;;;;;;4.60;4.15;;;19.60;99.90;;;;;;5012379;28;20702;-65
2022/05/19 01:01:55;;;;;;;3.75;3.50;;;19.50;99.90;;;;;;5012916;28;20599;-64
2022/05/19 01:04:30;;;;;;;4.55;3.42;;;19.50;99.90;;;;;;5011963;28;20610;-64
2022/05/19 01:07:02;;;;;;;3.80;3.50;;;19.40;99.90;;;;;;5012341;28;20247;-65
2022/05/19 01:09:35;;;;;;;4.18;3.88;;;19.40;99.90;;;;;;5009754;28;20369;-64
2022/05/19 01:12:03;;;;;;;4.00;3.70;;;19.30;99.90;;;;;;5011196;28;20220;-65
2022/05/19 01:14:31;;;;;;;6.72;3.95;;;19.30;99.90;;;;;;5012391;28;20697;-65
2022/05/19 01:17:00;;;;;;;5.70;4.00;;;19.30;99.90;;;;;;5012213;28;20201;-64
2022/05/19 01:19:33;;;;;;;3.83;3.53;;;19.10;99.90;;;;;;5011867;28;20315;-65
2022/05/19 01:22:09;;;;;;;4.07;3.67;;;19.20;99.90;;;;;;5011328;28;20267;-64
2022/05/19 01:24:44;;;;;;;3.88;3.58;;;19.10;99.90;;;;;;5012056;28;20637;-65
2022/05/19 01:27:13;;;;;;;3.72;3.53;;;19.10;99.90;;;;;;5012043;28;20205;-64
2022/05/19 01:29:41;;;;;;;4.60;3.53;;;19.10;99.90;;;;;;5011785;28;20225;-65
2022/05/19 01:32:23;;;;;;;4.13;3.55;;;19.10;99.90;;;;;;5010891;28;20232;-64
2022/05/19 01:34:51;;;;;;;6.28;3.97;;;19.10;99.90;;;;;;5011792;28;20264;-66
2022/05/19 01:37:19;;;;;;;4.63;4.20;;;19.10;99.90;;;;;;5011799;28;20243;-65
2022/05/19 01:39:53;;;;;;;3.50;3.20;;;19.10;99.90;;;;;;5011357;28;20658;-65
2022/05/19 01:42:34;;;;;;;4.15;3.72;;;19.10;99.90;;;;;;5010025;28;20201;-65
2022/05/19 01:45:12;;;;;;;4.90;3.58;;;19.10;99.90;;;;;;5011670;28;20231;-65
2022/05/19 01:47:44;;;;;;;3.70;3.40;;;19.10;99.90;;;;;;5011702;28;20272;-65
2022/05/19 01:50:20;;;;;;;4.47;3.50;;;19.10;99.90;;;;;;5005874;28;20205;-66
2022/05/19 01:52:57;;;;;;;3.80;3.33;;;19.10;99.90;;;;;;5010701;28;20288;-66
2022/05/19 01:55:37;;;;;;;4.00;3.70;;;19.10;99.90;;;;;;5011556;28;20204;-65
2022/05/19 01:58:13;;;;;;;3.42;3.17;;;19.00;99.90;;;;;;5011680;28;20252;-66
2022/05/19 02:00:42;;;;;;;3.92;3.15;;;19.00;99.90;;;;;;5011828;28;20208;-64
2022/05/19 02:03:19;;;;;;;4.10;3.70;;;19.00;99.90;;;;;;5010689;28;20209;-64
2022/05/19 02:05:53;;;;;;;4.45;3.60;;;18.90;99.90;;;;;;5011319;28;20745;-67
2022/05/19 02:08:26;;;;;;;3.85;3.58;;;18.90;99.90;;;;;;5011129;28;20236;-65
2022/05/19 02:10:57;;;;;;;4.70;3.80;;;19.00;99.90;;;;;;5010576;28;20209;-64
2022/05/19 02:13:28;;;;;;;4.28;3.88;;;19.00;99.90;;;;;;5010612;28;20291;-64
2022/05/19 02:15:58;;;;;;;3.70;3.50;;;18.90;99.90;;;;;;5011100;28;20236;-65
2022/05/19 02:18:27;;;;;;;4.13;3.83;;;18.90;99.90;;;;;;5011129;28;20221;-65
2022/05/19 02:20:59;;;;;;;6.40;3.90;;;18.90;99.90;;;;;;5011034;28;20209;-64
2022/05/19 02:23:27;;;;;;;3.53;3.22;;;18.80;99.90;;;;;;5010734;28;20233;-65
2022/05/19 02:25:55;;;;;;;4.00;3.70;;;18.70;99.90;;;;;;5011096;28;20201;-65
2022/05/19 02:28:30;;;;;;;5.28;4.10;;;18.70;99.90;;;;;;5010602;28;20225;-65
2022/05/19 02:30:59;;;;;;;6.32;3.90;;;18.70;99.90;;;;;;5011357;28;20208;-64
2022/05/19 02:33:29;;;;;;;4.25;3.70;;;18.50;99.90;;;;;;5010398;28;20233;-64
2022/05/19 02:35:57;;;;;;;7.22;4.28;;;18.50;99.90;;;;;;5011299;28;20654;-65
2022/05/19 02:38:25;;;;;;;4.30;4.00;;;18.40;99.90;;;;;;5010926;28;20332;-64
2022/05/19 02:40:53;;;;;;;4.78;3.80;;;18.40;99.90;;;;;;5010818;28;20633;-64
2022/05/19 02:43:21;;;;;;;4.65;4.15;;;18.50;99.90;;;;;;5010608;28;20638;-65
2022/05/19 02:45:50;;;;;;;4.75;3.72;;;18.50;99.90;;;;;;5010811;28;20260;-64
2022/05/19 02:48:19;;;;;;;4.43;4.00;;;18.50;99.90;;;;;;5011223;28;20319;-65
2022/05/19 02:50:49;;;;;;;3.30;3.05;;;18.50;99.90;;;;;;5010941;28;20220;-65
2022/05/19 02:53:18;;;;;;;4.45;4.05;;;18.40;99.90;;;;;;5012420;28;20205;-64
2022/05/19 02:55:46;;;;;;;5.00;3.80;;;18.30;99.90;;;;;;5014409;28;20240;-65
2022/05/19 02:58:15;;;;;;;3.95;3.63;;;18.20;99.90;;;;;;5014807;28;20283;-66
2022/05/19 03:00:48;;;;;;;4.03;3.72;;;18.30;99.90;;;;;;5014669;28;20204;-65
2022/05/19 03:03:17;;;;;;;4.65;4.20;;;18.20;99.90;;;;;;5008014;28;20284;-64
2022/05/19 03:05:46;;;;;;;3.78;3.58;;;18.20;99.90;;;;;;5014237;28;20193;-65
2022/05/19 03:08:14;;;;;;;5.80;4.38;;;18.20;99.90;;;;;;5015336;28;20739;-65
2022/05/19 03:10:44;;;;;;;5.30;4.45;;;18.10;99.90;;;;;;5014451;28;20299;-64
2022/05/19 03:13:17;;;;;;;4.03;3.72;;;18.00;99.90;;;;;;5013915;28;20293;-64
2022/05/19 03:15:45;;;;;;;3.97;3.60;;;18.00;99.90;;;;;;5014039;28;20221;-65
2022/05/19 03:18:14;;;;;;;4.32;3.70;;;18.00;99.90;;;;;;5014124;28;20283;-65
2022/05/19 03:20:43;;;;;;;4.05;3.67;;;17.90;99.90;;;;;;5014623;28;20205;-64
2022/05/19 03:23:11;;;;;;;3.85;3.45;;;18.00;99.90;;;;;;5013793;28;20296;-65
2022/05/19 03:25:39;;;;;;;4.95;3.95;;;18.00;99.90;;;;;;5014034;28;20296;-65
2022/05/19 03:28:07;;;;;;;5.07;3.97;;;18.00;99.90;;;;;;5014016;28;20307;-64
2022/05/19 03:30:36;;;;;;;3.85;3.55;;;18.00;99.90;;;;;;5014060;28;20256;-65
2022/05/19 03:33:04;;;;;;;3.50;3.20;;;18.00;99.90;;;;;;5013369;28;20210;-65
2022/05/19 03:35:32;;;;;;;4.60;3.50;;;18.00;99.90;;;;;;5014005;28;20295;-65
2022/05/19 03:38:01;;;;;;;4.65;3.30;;;18.10;99.90;;;;;;5013977;28;20257;-66
2022/05/19 03:40:29;;;;;;;3.08;2.80;;;18.00;99.90;;;;;;5013709;28;20224;-65
2022/05/19 03:42:57;;;;;;;5.43;4.13;;;17.90;99.90;;;;;;5013192;28;20663;-64
2022/05/19 03:45:25;;;;;;;9.80;4.25;;;17.90;99.90;;;;;;5013694;28;20568;-64
2022/05/19 03:47:53;;;;;;;4.00;3.70;;;17.90;99.90;;;;;;5013567;28;20544;-65
2022/05/19 03:50:21;;;;;;;3.90;3.50;;;17.90;99.90;;;;;;5013878;28;20202;-64
2022/05/19 03:52:49;;;;;;;4.40;4.10;;;17.90;99.90;;;;;;5013085;28;20202;-65
2022/05/19 03:55:18;;;;;;;4.65;3.78;;;17.90;99.90;;;;;;5013657;28;20350;-64
2022/05/19 03:57:46;;;;;;;4.35;3.58;;;17.90;99.90;;;;;;5013301;28;20205;-65
2022/05/19 04:00:15;;;;;;;6.72;4.13;;;17.90;99.90;;;;;;5013537;28;20201;-65
2022/05/19 04:02:43;;;;;;;4.03;3.72;;;17.90;99.90;;;;;;5012845;28;20237;-64
2022/05/19 04:05:13;;;;;;;4.57;4.18;;;17.90;99.90;;;;;;5012374;28;20236;-64
2022/05/19 04:07:41;;;;;;;5.22;3.47;;;17.90;99.90;;;;;;5013031;28;20209;-67
2022/05/19 04:10:11;;;;;;;3.95;2.88;;;17.80;99.90;;;;;;5012992;28;20255;-65
2022/05/19 04:12:42;;;;;;;8.00;3.35;;;17.80;99.90;;;;;;5013055;28;20292;-65
2022/05/19 04:15:12;;;;;;;3.33;3.13;;;17.80;99.90;;;;;;5013251;28;20287;-65
2022/05/19 04:17:41;;;;;;;5.70;3.80;;;17.80;99.90;;;;;;5012881;28;20328;-65
2022/05/19 04:20:10;;;;;;;3.70;3.10;;;17.70;99.90;;;;;;5013305;28;20259;-64
2022/05/19 04:22:39;;;;;;;3.63;3.30;;;17.80;99.90;;;;;;5012488;28;20245;-64
2022/05/19 04:25:09;;;;;;;3.67;3.38;;;17.80;99.90;;;;;;5012655;28;20205;-64
2022/05/19 04:27:37;;;;;;;3.67;3.33;;;17.80;99.90;;;;;;5013086;28;20654;-65
2022/05/19 04:30:08;;;;;;;7.15;3.10;;;17.90;99.90;;;;;;5012982;28;20236;-65
2022/05/19 04:32:42;;;;;;;3.85;3.55;;;17.90;99.90;;;;;;5012469;28;20215;-65
2022/05/19 04:35:10;;;;;;;4.53;3.50;;;17.90;99.90;;;;;;5012513;28;20757;-65
2022/05/19 04:37:37;;;;;;;5.03;3.80;;;18.00;99.90;;;;;;5012747;28;20773;-65
2022/05/19 04:40:07;;;;;;;3.75;2.72;;;18.00;99.90;;;;;;5012556;28;20201;-64
2022/05/19 04:42:35;;;;;;;3.50;3.20;;;18.00;99.90;;;;;;5011866;28;20205;-65
2022/05/19 04:45:03;;;;;;;5.47;3.38;;;18.00;99.90;;;;;;5012688;28;20288;-65
2022/05/19 04:47:33;;;;;;;6.40;2.92;;;18.10;99.90;;;;;;5012678;28;20209;-65
2022/05/19 04:50:01;;;;;;;3.45;3.25;;;18.00;99.90;;;;;;5012409;28;20205;-65
2022/05/19 04:52:29;;;;;;;3.67;2.90;;;18.00;99.90;;;;;;5011883;28;20213;-65
2022/05/19 04:54:57;;;;;;;3.53;2.90;;;18.10;99.90;;;;;;5012220;28;20217;-65
2022/05/19 04:57:24;;;;;;;5.45;3.13;;;18.10;99.90;;;;;;5012621;28;20236;-65
2022/05/19 04:59:52;;;;;;;3.22;2.85;;;18.20;99.90;;;;;;5012463;28;20330;-65
2022/05/19 05:02:20;;;;;;;2.92;2.70;;;18.30;99.90;;;;;;5011367;28;20305;-64
2022/05/19 05:04:49;;;;;;;3.83;2.90;;;18.30;99.90;;;;;;5012116;28;20213;-65
2022/05/19 05:07:18;;;;;;;6.05;3.33;;;18.40;99.90;;;;;;5006066;28;20284;-65
2022/05/19 05:09:45;;;;;;;3.00;2.80;;;18.50;99.90;;;;;;5005324;28;20682;-65
2022/05/19 05:12:13;;;;;;;3.60;3.10;;;18.50;99.90;;;;;;5004749;28;20237;-65
2022/05/19 05:14:41;;;;;;;2.63;2.42;;;18.60;99.90;;;;;;5005524;28;20292;-64
2022/05/19 05:17:15;;;;;;;3.75;2.90;;;18.60;99.90;;;;;;5006300;28;20263;-65
2022/05/19 05:19:43;;;;;;;5.80;2.78;;;18.60;99.90;;;;;;5012122;28;20241;-65
2022/05/19 05:22:13;;;;;;;4.63;2.90;;;18.70;99.90;;;;;;5011517;28;20217;-64
2022/05/19 05:24:41;;;;;;;3.00;2.80;;;18.70;99.90;;;;;;5012105;28;20293;-64
2022/05/19 05:27:09;;;;;;;3.65;3.00;;;18.80;99.90;;;;;;5011920;28;20225;-65
2022/05/19 05:29:38;;;;;;;8.63;3.58;;;18.80;99.90;;;;;;5011745;28;20304;-65
2022/05/19 05:32:06;;;;;;;3.25;3.05;;;18.90;99.90;;;;;;5011040;28;20201;-65
2022/05/19 05:34:35;;;;;;;3.13;2.83;;;18.90;99.90;;;;;;5012204;28;20251;-65
2022/05/19 05:37:04;;;;;;;3.75;2.90;;;19.00;99.90;;;;;;5011778;28;20754;-65
2022/05/19 05:39:33;;;;;;;3.80;2.63;;;19.00;99.90;;;;;;5011594;28;20302;-64
2022/05/19 05:42:02;;;;;;;6.72;2.83;;;19.10;99.90;;;;;;5010539;28;20215;-65
2022/05/19 05:44:30;;;;;;;5.43;3.42;;;19.20;99.90;;;;;;5011719;28;20213;-64
2022/05/19 05:46:58;;;;;;;3.10;2.80;;;19.30;99.90;;;;;;5011621;28;20288;-65
2022/05/19 05:49:25;;;;;;;3.75;2.65;;;19.30;99.90;;;;;;5011402;28;20593;-65
2022/05/19 05:51:54;;;;;;;2.90;2.58;;;19.40;99.90;;;;;;5011503;28;20213;-65
2022/05/19 05:54:22;;;;;;;3.63;3.00;;;19.50;99.90;;;;;;5011253;28;20280;-65
2022/05/19 05:56:56;;;;;;;2.50;2.30;;;19.60;99.90;;;;;;5011301;28;20221;-66
2022/05/19 05:59:24;;;;;;;3.35;2.70;;;19.70;99.90;;;;;;5011447;28;20225;-64
2022/05/19 06:01:52;;;;;;;3.33;2.72;;;19.80;99.90;;;;;;5011239;28;20247;-65
2022/05/19 06:04:21;;;;;;;3.40;2.70;;;19.90;99.90;;;;;;5010897;28;20251;-65
2022/05/19 06:06:48;;;;;;;3.50;2.90;;;19.90;99.90;;;;;;5011316;28;20236;-65
2022/05/19 06:09:17;;;;;;;3.90;2.33;;;20.00;99.90;;;;;;5010584;28;20268;-65
2022/05/19 06:11:45;;;;;;;6.10;2.50;;;20.10;99.90;;;;;;5010840;28;20229;-65
2022/05/19 06:14:15;;;;;;;4.03;3.20;;;20.10;99.90;;;;;;5010419;28;20248;-64
2022/05/19 06:16:42;;;;;;;2.97;2.75;;;20.20;99.90;;;;;;5010992;28;20245;-66
2022/05/19 06:19:11;;;;;;;3.38;3.17;;;20.30;99.90;;;;;;5011126;28;20251;-67
2022/05/19 06:21:39;;;;;;;3.90;2.38;;;20.40;99.90;;;;;;5010726;28;20288;-66
2022/05/19 06:24:09;;;;;;;4.25;2.58;;;20.50;99.90;;;;;;5010366;28;20209;-65
2022/05/19 06:26:38;;;;;;;3.03;2.58;;;20.60;99.90;;;;;;5010755;28;20205;-65
2022/05/19 06:29:06;;;;;;;2.88;2.65;;;20.70;99.90;;;;;;5011093;28;20233;-65
2022/05/19 06:31:36;;;;;;;3.03;2.72;;;20.80;99.90;;;;;;5011154;28;20236;-65
2022/05/19 06:34:05;;;;;;;3.08;2.72;;;20.80;99.90;;;;;;5010113;28;20288;-65
2022/05/19 06:36:33;;;;;;;4.40;3.22;;;20.90;99.90;;;;;;5011064;28;20231;-65
2022/05/19 06:39:00;;;;;;;5.20;2.90;;;21.00;99.90;;;;;;5010972;28;20249;-65
2022/05/19 06:44:17;;;;;;;2.90;2.70;;;21.10;99.90;;;;;;5010380;28;20213;-65
2022/05/19 06:46:47;;;;;;;2.97;2.65;;;21.20;99.90;;;;;;5010920;28;20201;-65
2022/05/19 06:49:17;;;;;;;4.78;3.75;;;21.40;99.90;;;;;;5011173;28;20231;-66
2022/05/19 06:51:45;;;;;;;4.20;2.80;;;21.50;99.90;;;;;;5010591;28;20232;-67
2022/05/19 06:54:18;;;;;;;3.30;2.45;;;21.60;99.90;;;;;;5010153;28;20288;-65
2022/05/19 06:56:45;;;;;;;3.30;2.95;;;21.80;99.90;;;;;;5010548;28;20713;-64
2022/05/19 06:59:15;;;;;;;4.30;2.80;;;21.90;99.90;;;;;;5010434;28;20324;-65
2022/05/19 07:01:44;;;;;;;3.63;2.47;;;21.90;99.90;;;;;;5010783;28;20255;-65
2022/05/19 07:04:15;;;;;;;4.00;2.95;;;21.90;99.90;;;;;;5010077;28;20206;-65
2022/05/19 07:06:43;;;;;;;5.30;3.20;;;21.90;99.90;;;;;;5010776;28;20209;-65
2022/05/19 07:09:11;;;;;;;4.97;3.00;;;21.90;99.90;;;;;;5010234;28;20776;-65
2022/05/19 07:11:39;;;;;;;4.78;3.10;;;21.90;99.90;;;;;;5008063;28;20206;-65
2022/05/19 07:14:08;;;;;;;6.50;2.70;;;22.00;99.90;;;;;;5009950;28;20206;-65
2022/05/19 07:16:36;;;;;;;9.25;3.17;;;22.20;99.90;;;;;;5010584;28;20635;-65
2022/05/19 07:21:51;;;;;;;4.10;2.55;;;22.30;99.90;;;;;;5010541;28;20229;-65
2022/05/19 07:24:21;;;;;;;2.60;2.40;;;22.30;99.90;;;;;;5010181;28;20628;-65
2022/05/19 07:26:51;;;;;;;5.43;3.00;;;22.40;99.90;;;;;;5010279;28;20556;-65
2022/05/19 07:29:20;;;;;;;3.90;2.72;;;22.60;99.90;;;;;;5010365;28;20221;-65
2022/05/19 07:31:48;;;;;;;2.85;2.58;;;22.50;99.90;;;;;;5010586;28;20620;-66
2022/05/19 07:34:18;;;;;;;7.30;2.83;;;22.60;99.90;;;;;;5009845;28;20201;-65
2022/05/19 07:36:46;;;;;;;4.45;2.60;;;22.70;99.90;;;;;;5010400;28;20256;-65
2022/05/19 07:39:16;;;;;;;4.53;2.42;;;23.00;99.90;;;;;;5010947;28;20229;-66
2022/05/19 07:41:44;;;;;;;4.32;2.60;;;23.00;99.90;;;;;;5013873;28;20496;-65
2022/05/19 07:44:12;;;;;;;4.30;2.92;;;23.10;99.90;;;;;;5013059;28;20592;-65
2022/05/19 07:46:40;;;;;;;2.33;2.08;;;23.20;99.90;;;;;;5013951;28;20244;-65
2022/05/19 07:49:08;;;;;;;6.28;2.58;;;23.20;99.90;;;;;;5013619;28;20225;-65
2022/05/19 07:51:40;;;;;;;9.65;3.35;;;23.40;99.90;;;;;;5013650;28;20725;-65
2022/05/19 07:54:10;;;;;;;5.13;2.50;;;23.50;99.90;;;;;;5006538;28;20224;-65
2022/05/19 07:56:40;;;;;;;3.58;2.42;;;23.50;99.90;;;;;;5007502;28;20695;-65
2022/05/19 07:59:09;;;;;;;4.70;3.35;;;23.70;99.90;;;;;;5013646;28;20217;-65
2022/05/19 08:01:39;;;;;;;4.22;2.53;;;23.70;99.90;;;;;;5013556;28;20617;-65
2022/05/19 08:04:08;;;;;;;2.58;2.35;;;23.70;99.90;;;;;;5012641;28;20642;-65
2022/05/19 08:06:36;;;;;;;2.58;2.22;;;23.80;99.90;;;;;;5013422;28;20193;-66
2022/05/19 08:10:20;;;;;;;3.75;2.75;;;23.90;99.80;;;;;;5012816;28;20702;-65
2022/05/19 08:11:56;;;;;;;3.63;2.47;;;24.10;99.90;;;;;;5012448;28;20666;-67
2022/05/19 08:17:29;;;;;;;3.10;2.20;;;24.60;98.50;;;;;;5013106;28;20217;-65
2022/05/19 08:19:58;;;;;;;2.95;2.00;;;24.60;98.50;;;;;;5013220;28;20654;-65
2022/05/19 08:22:26;;;;;;;2.53;2.42;;;24.70;98.80;;;;;;5012265;28;20213;-65
2022/05/19 08:24:54;;;;;;;2.42;2.22;;;24.90;98.20;;;;;;5013066;28;20240;-65
2022/05/19 08:27:23;;;;;;;3.20;2.70;;;25.20;98.70;;;;;;5012879;28;20256;-65
2022/05/19 08:29:51;;;;;;;2.70;2.50;;;25.30;97.20;;;;;;5012449;28;20229;-67
2022/05/19 08:32:19;;;;;;;2.65;2.22;;;25.50;97.40;;;;;;5012358;28;20209;-65
2022/05/19 08:34:47;;;;;;;3.30;2.38;;;25.80;97.00;;;;;;5012818;28;20237;-65
2022/05/19 08:37:15;;;;;;;3.03;2.08;;;26.00;96.00;;;;;;5012780;28;20256;-65
2022/05/19 08:39:43;;;;;;;3.55;2.20;;;26.30;95.80;;;;;;5012471;28;20237;-65
2022/05/19 08:42:14;;;;;;;3.97;2.80;;;26.60;96.50;;;;;;5011793;28;20197;-65
2022/05/19 08:44:48;;;;;;;4.20;2.00;;;26.70;96.80;;;;;;5012669;28;20648;-67
2022/05/19 08:47:26;;;;;;;2.50;2.15;;;26.60;95.80;;;;;;5012832;28;20209;-65
2022/05/19 08:49:58;;;;;;;2.35;2.15;;;26.60;96.50;;;;;;5012232;28;20663;-65
2022/05/19 08:52:28;;;;;;;3.83;2.30;;;26.70;96.30;;;;;;5005709;28;20205;-65
2022/05/19 08:54:58;;;;;;;3.40;2.22;;;27.00;96.80;;;;;;5005913;28;20197;-66
2022/05/19 08:57:28;;;;;;;2.50;2.30;;;27.20;95.60;;;;;;5006288;28;20228;-65
2022/05/19 09:00:04;;;;;;;2.22;2.03;;;27.40;94.80;;;;;;5012507;28;20243;-65
2022/05/19 09:02:38;;;;;;;5.28;1.95;;;27.30;93.00;;;;;;5011985;28;20230;-65
2022/05/19 09:05:26;;;;;;;4.43;2.05;;;27.40;93.60;;;;;;5012094;28;20629;-66
2022/05/19 09:08:03;;;;;;;3.22;2.15;;;27.60;93.80;;;;;;5029091;23;20225;-65
2022/05/19 09:10:57;;;;;;;2.88;1.92;;;27.60;93.10;;;;;;4979477;28;20298;-62
2022/05/19 09:13:35;;;;;;;2.55;2.10;;;28.00;92.40;;;;;;4976323;28;20230;-62
2022/05/19 09:16:11;;;;;;;4.50;2.25;;;28.40;94.10;;;;;;4974095;28;20293;-62
2022/05/19 09:18:41;;;;;;;4.05;2.40;;;28.50;92.90;;;;;;4979044;28;20237;-62
2022/05/19 09:21:09;;;;;;;5.10;1.90;;;28.70;92.20;;;;;;4992017;28;20287;-62
2022/05/19 09:23:40;;;;;;;2.20;2.00;;;28.60;91.80;;;;;;4991285;28;20214;-62
2022/05/19 09:26:35;;;;;;;3.33;2.20;;;28.50;91.10;;;;;;4973339;28;20202;-62
2022/05/19 09:29:07;;;;;;;3.20;2.00;;;28.30;90.60;;;;;;4989173;28;20218;-62
2022/05/19 09:31:39;;;;;;;2.60;1.70;;;28.40;91.90;;;;;;4992079;28;20261;-62
2022/05/19 09:34:09;;;;;;;3.97;2.10;;;28.40;91.30;;;;;;4991298;28;20836;-62
2022/05/19 09:36:41;;;;;;;3.10;2.53;;;28.40;91.10;;;;;;4991717;28;20598;-62
2022/05/19 09:39:14;;;;;;;4.60;1.98;;;28.60;91.00;;;;;;4991380;28;20225;-64
2022/05/19 09:41:48;;;;;;;4.82;2.10;;;28.80;91.80;;;;;;4978978;28;20214;-64
2022/05/19 09:44:17;;;;;;;2.40;2.20;;;28.70;90.30;;;;;;4972879;28;20542;-64
2022/05/19 09:46:50;;;;;;;2.20;1.85;;;28.90;91.50;;;;;;4973081;28;20246;-64
2022/05/19 09:49:27;;;;;;;4.43;1.88;;;29.00;90.50;;;;;;4972701;28;20219;-64
2022/05/19 09:52:01;;;;;;;2.42;2.22;;;29.30;91.70;;;;;;4972856;28;20287;-63
2022/05/19 09:54:30;;;;;;;4.80;2.15;;;29.60;89.60;;;;;;4973128;28;20285;-64
2022/05/19 09:57:05;;;;;;;2.55;2.08;;;29.50;87.80;;;;;;4972855;28;20261;-64
2022/05/19 09:59:37;;;;;;;2.33;1.90;;;29.70;91.10;;;;;;4972807;28;20324;-64
2022/05/19 10:02:17;;;;;;;1.95;1.75;;;30.00;87.90;;;;;;4971392;28;20244;-64
2022/05/19 10:04:50;;;;;;;1.75;1.50;;;30.40;90.60;;;;;;4985658;28;20260;-64
2022/05/19 10:07:23;;;;;;;5.53;1.70;;;30.60;87.20;;;;;;4991636;28;20198;-64
2022/05/19 10:09:53;;;;;;;1.95;1.70;;;30.60;85.50;;;;;;4983538;28;20699;-63
2022/05/19 10:12:28;;;;;;;1.65;1.55;;;30.40;85.70;;;;;;4981388;28;20206;-64
2022/05/19 10:15:01;;;;;;;4.43;2.45;;;30.40;85.80;;;;;;4972871;28;20210;-64
2022/05/19 10:17:44;;;;;;;5.38;2.05;;;30.80;84.60;;;;;;4972574;28;20238;-65
2022/05/19 10:20:19;;;;;;;3.15;2.00;;;30.80;85.60;;;;;;4972708;28;20208;-64
2022/05/19 10:23:19;;;;;;;3.58;2.05;;;30.70;84.40;;;;;;4986412;28;20212;-64
2022/05/19 10:26:05;;;;;;;2.10;1.90;;;31.00;85.80;;;;;;4991476;28;20647;-64
2022/05/19 10:31:43;;;;;;;2.90;2.50;;;31.40;84.60;;;;;;4974681;28;20301;-64
2022/05/19 10:34:33;;;;;;;2.85;2.30;;;31.10;84.80;;;;;;4971736;28;20680;-64
2022/05/19 10:37:11;;;;;;;2.67;2.45;;;30.90;86.70;;;;;;4986160;28;20248;-64
2022/05/19 10:39:55;;;;;;;5.22;1.95;;;31.20;84.40;;;;;;4987651;28;20234;-64
2022/05/19 10:42:33;;;;;;;4.80;1.80;;;31.00;87.70;;;;;;4974397;28;20206;-64
2022/05/19 10:45:16;;;;;;;5.88;2.40;;;31.20;86.40;;;;;;4972338;28;20213;-64
2022/05/19 10:47:56;;;;;;;3.85;2.10;;;31.50;84.10;;;;;;4986409;28;20244;-64
2022/05/19 10:50:31;;;;;;;4.38;2.33;;;31.20;84.30;;;;;;4990971;28;20624;-64
2022/05/19 10:53:32;;;;;;;6.80;2.30;;;31.00;84.90;;;;;;4990304;28;20321;-64
2022/05/19 10:56:15;;;;;;;3.35;2.67;;;30.60;85.50;;;;;;4990749;28;20214;-64
2022/05/19 10:58:58;;;;;;;3.15;2.30;;;30.60;86.50;;;;;;4990598;28;20268;-64
2022/05/19 11:01:37;;;;;;;5.57;2.47;;;30.30;86.40;;;;;;4984796;28;20535;-64
2022/05/19 11:04:29;;;;;;;2.97;2.65;;;29.80;87.00;;;;;;4990260;28;20198;-64
2022/05/19 11:07:26;;;;;;;5.40;2.90;;;29.60;88.90;;;;;;4991063;28;20213;-63
2022/05/19 11:10:02;;;;;;;2.97;2.35;;;29.60;88.80;;;;;;4982539;28;20250;-64
2022/05/19 11:12:37;;;;;;;3.08;2.70;;;29.70;91.00;;;;;;4980966;28;20210;-64
2022/05/19 11:15:14;;;;;;;4.30;2.70;;;29.90;88.10;;;;;;4975642;28;20285;-64
2022/05/19 11:17:57;;;;;;;4.53;3.08;;;29.70;89.00;;;;;;4975938;28;20702;-63
2022/05/19 11:20:29;;;;;;;4.95;3.15;;;29.70;89.80;;;;;;4988903;28;20292;-64
2022/05/19 11:23:04;;;;;;;5.28;2.80;;;29.80;89.80;;;;;;4993701;28;20594;-64
2022/05/19 11:28:29;;;;;;;6.45;3.05;;;30.10;89.10;;;;;;4981318;28;20238;-64
2022/05/19 11:31:01;;;;;;;4.88;3.20;;;30.40;90.20;;;;;;4994212;28;20268;-63
2022/05/19 11:33:37;;;;;;;11.15;3.55;;;30.50;88.40;;;;;;4974789;28;20242;-64
2022/05/19 11:36:12;;;;;;;3.17;2.58;;;30.20;88.00;;;;;;4988869;28;20566;-64
2022/05/19 11:38:49;;;;;;;3.75;3.00;;;29.90;88.80;;;;;;4993662;28;20257;-64
2022/05/19 11:41:21;;;;;;;3.00;2.78;;;29.70;89.00;;;;;;4983673;28;20221;-63
2022/05/19 11:43:54;;;;;;;4.22;3.30;;;29.70;90.50;;;;;;4974685;28;20640;-63
2022/05/19 11:46:26;;;;;;;3.72;3.33;;;30.00;89.70;;;;;;4975194;28;20199;-64
2022/05/19 11:57:33;;;;;;;8.00;3.20;;;31.00;89.70;;;;;;4993457;28;20644;-64
2022/05/19 12:00:04;;;;;;;3.50;2.65;;;31.30;89.70;;;;;;4993038;28;20321;-64
2022/05/19 12:02:38;;;;;;;4.90;3.30;;;31.20;88.10;;;;;;4992893;28;20201;-64
2022/05/19 12:05:12;;;;;;;2.97;2.60;;;31.00;88.50;;;;;;4993320;28;20260;-64
2022/05/19 12:07:49;;;;;;;3.60;3.17;;;31.00;88.60;;;;;;4993711;28;20292;-64
2022/05/19 12:10:23;;;;;;;6.55;3.25;;;31.00;87.90;;;;;;4981769;28;21012;-64
2022/05/19 12:12:58;;;;;;;7.68;3.00;;;30.80;88.70;;;;;;4983168;28;20550;-64
2022/05/19 12:15:32;;;;;;;9.15;3.25;;;30.50;88.20;;;;;;4987176;28;20239;-64
2022/05/19 12:18:08;;;;;;;3.92;3.47;;;30.40;90.00;;;;;;4974716;28;20664;-64
2022/05/19 12:20:50;;;;;;;5.40;3.75;;;30.50;90.20;;;;;;4974613;28;20218;-64
2022/05/19 12:23:25;;;;;;;4.72;2.85;;;30.60;89.80;;;;;;4974277;28;20533;-64
2022/05/19 12:26:00;;;;;;;3.15;2.83;;;31.20;87.90;;;;;;4973566;28;20198;-64
2022/05/19 12:28:32;;;;;;;6.40;3.05;;;31.80;88.20;;;;;;4974272;28;20230;-64
2022/05/19 12:33:53;;;;;;;4.17;2.83;;;32.60;85.90;;;;;;4973579;28;20642;-64
2022/05/19 12:36:32;;;;;;;5.60;3.67;;;32.80;86.70;;;;;;4974181;28;20676;-64
2022/05/19 12:39:10;;;;;;;3.90;3.03;;;32.80;87.40;;;;;;4980597;28;20704;-64
2022/05/19 12:41:53;;;;;;;6.27;3.20;;;32.80;86.00;;;;;;4979443;28;20664;-64
2022/05/19 12:44:29;;;;;;;5.80;2.80;;;33.10;85.80;;;;;;4973606;28;20614;-64
2022/05/19 12:47:00;;;;;;;7.13;3.03;;;33.00;84.70;;;;;;4974183;28;20756;-64
2022/05/19 12:49:29;;;;;;;7.67;3.27;;;32.90;86.30;;;;;;4973965;28;21009;-64
2022/05/19 12:51:59;;;;;;;4.47;2.70;;;32.60;86.10;;;;;;4973764;28;20614;-64
2022/05/19 12:54:29;;;;;;;3.10;2.90;;;32.60;87.40;;;;;;4973659;28;21228;-64
2022/05/19 12:57:30;;;;;;;3.60;3.00;;;32.90;86.10;;;;;;4973652;28;20716;-64
2022/05/19 13:00:11;;;;;;;5.30;2.83;;;33.20;85.70;;;;;;4987893;28;20707;-64
2022/05/19 13:02:47;;;;;;;4.87;4.30;;;32.80;85.60;;;;;;4991893;28;20643;-64
2022/05/19 13:05:22;;;;;;;4.50;3.30;;;32.50;86.20;;;;;;4992150;28;20967;-64
2022/05/19 13:08:02;;;;;;;6.00;3.10;;;32.30;88.00;;;;;;4992281;28;20620;-64
2022/05/19 13:10:38;;;;;;;3.50;3.20;;;32.30;88.30;;;;;;4979409;28;20632;-64
2022/05/19 13:13:24;;;;;;;4.87;3.60;;;32.30;87.80;;;;;;4976564;28;20629;-64
2022/05/19 13:15:55;;;;;;;3.73;2.97;;;32.10;86.90;;;;;;4985033;28;20826;-64
2022/05/19 13:18:28;;;;;;;5.87;3.50;;;32.10;87.70;;;;;;4973960;28;21078;-64
2022/05/19 13:21:05;;;;;;;3.10;2.70;;;32.10;88.80;;;;;;4973384;28;20763;-64
2022/05/19 13:23:37;;;;;;;4.00;3.07;;;32.10;88.80;;;;;;4972893;28;20545;-64
2022/05/19 13:26:08;;;;;;;7.90;3.77;;;32.20;87.90;;;;;;4973124;28;20712;-64
2022/05/19 13:31:25;;;;;;;3.63;3.20;;;32.90;89.40;;;;;;4973357;28;20244;-64
2022/05/19 13:33:57;;;;;;;3.50;3.20;;;33.30;87.70;;;;;;4973113;28;20629;-64
2022/05/19 13:36:31;;;;;;;5.40;3.60;;;33.70;85.80;;;;;;4985390;28;20629;-64
2022/05/19 13:39:10;;;;;;;5.70;3.20;;;34.00;86.10;;;;;;4991831;28;20736;-64
2022/05/19 13:41:46;;;;;;;9.20;3.37;;;34.60;84.90;;;;;;4991882;28;21232;-65